Weather at Flamingo International Airport

Public forecast

Using degrees Celsius for public forecast. Weather courtesy of forecast.io.

Current aviation weather report (METAR) for Flamingo International Airport

Retrieved 2021/09/25 23:55 UTC (29 minutes ago):

TNCB 252355Z AUTO 09012KT 070V130 9999 FEW015/// 29/25 Q1012

Aviation forecast (TAF) for Flamingo International Airport

Retrieved 2021-09-26 00:27 UTC (0 seconds ago):

TAF TNCB 252314Z 2600/2706 09012KT 9999 FEW018